Time;durP1;ratioP1;P1;durP2;ratioP2;P2;SDS_P1;SDS_P2;PMS_P1;PMS_P2;Temp;Humidity;BMP_temperature;BMP_pressure;BME280_temperature;BME280_humidity;BME280_pressure;Samples;Min_cycle;Max_cycle;Signal;HPM_P1;HPM_P2
2022/07/10 00:01:59;;;;;;;1.17;0.65;;;;;;;;;;6067456;23;20078;-57
2022/07/10 00:04:26;;;;;;;1.13;0.80;;;;;;;;;;6081697;23;20015;-54
2022/07/10 00:06:52;;;;;;;2.63;1.00;;;;;;;;;;6081051;23;20468;-56
2022/07/10 00:09:19;;;;;;;2.08;1.08;;;;;;;;;;6074312;23;20081;-54
2022/07/10 00:11:45;;;;;;;3.95;1.05;;;;;;;;;;6084806;23;20058;-55
2022/07/10 00:14:14;;;;;;;3.22;0.93;;;;;;;;;;6080084;23;20065;-54
2022/07/10 00:16:41;;;;;;;1.13;0.77;;;;;;;;;;6084876;23;20386;-56
2022/07/10 00:19:07;;;;;;;1.45;0.80;;;;;;;;;;6076305;23;20018;-54
2022/07/10 00:21:33;;;;;;;0.82;0.70;;;;;;;;;;6085660;23;20018;-56
2022/07/10 00:24:00;;;;;;;1.02;0.93;;;;;;;;;;6079362;23;20025;-57
2022/07/10 00:26:26;;;;;;;1.13;0.60;;;;;;;;;;6090040;23;20015;-56
2022/07/10 00:28:53;;;;;;;0.93;0.63;;;;;;;;;;6080193;23;20368;-56
2022/07/10 00:31:21;;;;;;;1.52;0.75;;;;;;;;;;6082102;23;20022;-57
2022/07/10 00:33:48;;;;;;;4.03;0.98;;;;;;;;;;6080959;23;20028;-57
2022/07/10 00:36:14;;;;;;;1.25;0.90;;;;;;;;;;6086746;23;20014;-56
2022/07/10 00:38:41;;;;;;;3.22;0.90;;;;;;;;;;6077674;23;20077;-56
2022/07/10 00:41:07;;;;;;;1.67;0.73;;;;;;;;;;6088130;23;20019;-56
2022/07/10 00:43:49;;;;;;;1.05;0.90;;;;;;;;;;6072507;23;20446;-57
2022/07/10 00:46:20;;;;;;;3.35;0.90;;;;;;;;;;6084425;23;20049;-56
2022/07/10 00:48:47;;;;;;;0.73;0.60;;;;;;;;;;6080118;23;20409;-57
2022/07/10 00:51:14;;;;;;;2.08;0.90;;;;;;;;;;6088181;23;20070;-57
2022/07/10 00:53:41;;;;;;;1.52;0.70;;;;;;;;;;6077905;23;20014;-58
2022/07/10 00:56:07;;;;;;;3.13;1.15;;;;;;;;;;6082285;23;20018;-56
2022/07/10 00:58:35;;;;;;;2.25;0.90;;;;;;;;;;6073117;23;20461;-57
2022/07/10 01:01:02;;;;;;;1.15;0.63;;;;;;;;;;6086130;23;20014;-56
2022/07/10 01:03:28;;;;;;;0.82;0.65;;;;;;;;;;6085519;23;20018;-53
2022/07/10 01:05:56;;;;;;;1.33;0.68;;;;;;;;;;6088633;23;20022;-57
2022/07/10 01:08:23;;;;;;;5.45;0.70;;;;;;;;;;6071419;23;20014;-57
2022/07/10 01:10:50;;;;;;;0.80;0.80;;;;;;;;;;6086661;23;20446;-55
2022/07/10 01:13:16;;;;;;;3.88;0.80;;;;;;;;;;6076379;23;20050;-56
2022/07/10 01:15:43;;;;;;;2.97;0.75;;;;;;;;;;6087215;23;20018;-55
2022/07/10 01:18:09;;;;;;;2.03;0.90;;;;;;;;;;6079142;23;20019;-55
2022/07/10 01:20:36;;;;;;;1.05;0.70;;;;;;;;;;6087416;23;20033;-55
2022/07/10 01:23:04;;;;;;;1.35;1.02;;;;;;;;;;6085554;23;20078;-56
2022/07/10 01:25:31;;;;;;;2.78;0.80;;;;;;;;;;6082164;23;20018;-55
2022/07/10 01:27:58;;;;;;;4.78;1.00;;;;;;;;;;6072892;23;20014;-56
2022/07/10 01:30:26;;;;;;;2.25;0.90;;;;;;;;;;6085868;23;20022;-55
2022/07/10 01:32:53;;;;;;;0.98;0.88;;;;;;;;;;6088703;23;20823;-56
2022/07/10 01:35:20;;;;;;;0.98;0.88;;;;;;;;;;6080796;23;20015;-57
2022/07/10 01:37:46;;;;;;;0.73;0.63;;;;;;;;;;6081388;23;20021;-55
2022/07/10 01:40:14;;;;;;;1.38;0.85;;;;;;;;;;6078636;23;20065;-56
2022/07/10 01:42:41;;;;;;;1.02;0.73;;;;;;;;;;6085079;23;20014;-56
2022/07/10 01:45:08;;;;;;;2.97;0.85;;;;;;;;;;6074818;23;20018;-56
2022/07/10 01:47:35;;;;;;;3.05;0.70;;;;;;;;;;6085328;23;20015;-57
2022/07/10 01:50:02;;;;;;;0.93;0.80;;;;;;;;;;6084590;23;20040;-58
2022/07/10 01:52:29;;;;;;;3.08;1.20;;;;;;;;;;6080879;23;20357;-55
2022/07/10 01:54:56;;;;;;;1.92;1.02;;;;;;;;;;6079589;23;20039;-57
2022/07/10 01:57:24;;;;;;;5.22;1.02;;;;;;;;;;6084830;23;20070;-55
2022/07/10 01:59:50;;;;;;;1.17;0.82;;;;;;;;;;6075738;23;20617;-57
2022/07/10 02:02:17;;;;;;;1.27;0.88;;;;;;;;;;6086423;23;20192;-55
2022/07/10 02:04:42;;;;;;;2.05;1.38;;;;;;;;;;6082034;23;20019;-55
2022/07/10 02:07:09;;;;;;;1.17;0.98;;;;;;;;;;6081111;23;20090;-54
2022/07/10 02:09:35;;;;;;;1.23;1.00;;;;;;;;;;6069657;23;20059;-57
2022/07/10 02:12:02;;;;;;;1.70;1.10;;;;;;;;;;6087948;23;20078;-55
2022/07/10 02:14:30;;;;;;;2.42;1.10;;;;;;;;;;6077549;23;20014;-56
2022/07/10 02:16:57;;;;;;;1.70;1.25;;;;;;;;;;6089855;23;20024;-54
2022/07/10 02:19:23;;;;;;;1.25;0.90;;;;;;;;;;6074131;23;20576;-57
2022/07/10 02:21:50;;;;;;;3.03;1.13;;;;;;;;;;6084373;23;20022;-57
2022/07/10 02:24:17;;;;;;;0.88;0.85;;;;;;;;;;6055211;23;20046;-57
2022/07/10 02:26:43;;;;;;;1.70;1.20;;;;;;;;;;6075763;23;20077;-54
2022/07/10 02:29:10;;;;;;;2.17;1.05;;;;;;;;;;6086073;23;20014;-57
2022/07/10 02:31:40;;;;;;;2.47;1.13;;;;;;;;;;6081065;23;20093;-56
2022/07/10 02:34:07;;;;;;;3.30;1.10;;;;;;;;;;6090644;23;20038;-54
2022/07/10 02:36:34;;;;;;;1.73;1.20;;;;;;;;;;6084353;23;20014;-55
2022/07/10 02:39:00;;;;;;;1.42;1.10;;;;;;;;;;6086794;23;20029;-54
2022/07/10 02:41:27;;;;;;;1.60;1.08;;;;;;;;;;6075075;23;20030;-55
2022/07/10 02:43:53;;;;;;;1.15;1.00;;;;;;;;;;6093390;23;20018;-56
2022/07/10 02:46:20;;;;;;;1.20;0.98;;;;;;;;;;6083977;23;20014;-57
2022/07/10 02:51:23;;;;;;;1.58;1.15;;;;;;;;;;6012557;23;20242;-56
2022/07/10 02:53:50;;;;;;;1.60;1.30;;;;;;;;;;6084268;23;20046;-52
2022/07/10 02:56:17;;;;;;;1.70;1.00;;;;;;;;;;6077494;23;20034;-54
2022/07/10 02:58:44;;;;;;;1.48;1.35;;;;;;;;;;6083799;23;20469;-55
2022/07/10 03:01:11;;;;;;;0.80;0.80;;;;;;;;;;6082714;23;20018;-56
2022/07/10 03:03:37;;;;;;;1.42;1.20;;;;;;;;;;6071635;23;20050;-55
2022/07/10 03:06:04;;;;;;;1.40;1.30;;;;;;;;;;6088464;23;20018;-55
2022/07/10 03:08:32;;;;;;;2.22;1.00;;;;;;;;;;6085959;23;20078;-54
2022/07/10 03:10:59;;;;;;;0.95;0.93;;;;;;;;;;6084084;23;20018;-55
2022/07/10 03:13:25;;;;;;;1.08;0.98;;;;;;;;;;6076060;23;20018;-51
2022/07/10 03:15:54;;;;;;;1.27;1.10;;;;;;;;;;6087207;23;20054;-56
2022/07/10 03:18:20;;;;;;;1.20;1.05;;;;;;;;;;6079760;23;20223;-56
2022/07/10 03:20:47;;;;;;;1.40;1.15;;;;;;;;;;6090752;23;20537;-55
2022/07/10 03:23:14;;;;;;;1.95;1.20;;;;;;;;;;6076007;23;20014;-57
2022/07/10 03:25:42;;;;;;;1.73;1.35;;;;;;;;;;6089034;23;20025;-54
2022/07/10 03:28:08;;;;;;;2.15;1.20;;;;;;;;;;6080696;23;20025;-52
2022/07/10 03:30:35;;;;;;;2.97;1.10;;;;;;;;;;6085684;23;20022;-56
2022/07/10 03:33:03;;;;;;;1.70;1.17;;;;;;;;;;6078711;23;20065;-55
2022/07/10 03:35:31;;;;;;;2.15;1.13;;;;;;;;;;6089047;23;20073;-55
2022/07/10 03:37:57;;;;;;;1.90;1.20;;;;;;;;;;6075882;23;20014;-57
2022/07/10 03:40:24;;;;;;;1.45;1.00;;;;;;;;;;6069476;23;20022;-55
2022/07/10 03:42:52;;;;;;;1.27;1.05;;;;;;;;;;6086885;23;20018;-54
2022/07/10 03:45:18;;;;;;;2.17;1.60;;;;;;;;;;6087931;23;20014;-55
2022/07/10 03:47:45;;;;;;;1.80;1.55;;;;;;;;;;6077779;23;20022;-56
2022/07/10 03:50:11;;;;;;;1.58;1.27;;;;;;;;;;6087135;23;20348;-54
2022/07/10 03:52:38;;;;;;;1.15;1.05;;;;;;;;;;6111607;23;20013;-57
2022/07/10 03:55:05;;;;;;;3.53;1.30;;;;;;;;;;6118292;23;20018;-55
2022/07/10 04:00:17;;;;;;;2.05;1.23;;;;;;;;;;6138830;23;20018;-55
2022/07/10 04:02:44;;;;;;;1.92;1.10;;;;;;;;;;6115454;23;20017;-54
2022/07/10 04:05:11;;;;;;;1.45;0.90;;;;;;;;;;6109604;23;20014;-55
2022/07/10 04:07:37;;;;;;;2.80;1.40;;;;;;;;;;6111016;23;20098;-54
2022/07/10 04:10:04;;;;;;;1.35;1.10;;;;;;;;;;6105278;23;20018;-55
2022/07/10 04:12:31;;;;;;;2.13;1.20;;;;;;;;;;6120168;23;20029;-55
2022/07/10 04:14:58;;;;;;;1.63;1.25;;;;;;;;;;6116025;23;20045;-53
2022/07/10 04:17:26;;;;;;;4.50;1.33;;;;;;;;;;6119409;23;20021;-54
2022/07/10 04:19:53;;;;;;;1.92;1.67;;;;;;;;;;6109359;23;20025;-57
2022/07/10 04:22:19;;;;;;;1.85;1.35;;;;;;;;;;6110750;23;20028;-54
2022/07/10 04:24:46;;;;;;;1.60;1.42;;;;;;;;;;6110072;23;20606;-53
2022/07/10 04:27:13;;;;;;;3.40;1.40;;;;;;;;;;6115068;23;20077;-57
2022/07/10 04:29:40;;;;;;;1.77;1.33;;;;;;;;;;6110698;23;20368;-54
2022/07/10 04:32:06;;;;;;;1.40;1.30;;;;;;;;;;6117674;23;20544;-55
2022/07/10 04:34:34;;;;;;;2.17;1.55;;;;;;;;;;6102437;23;20014;-56
2022/07/10 04:37:01;;;;;;;1.77;1.13;;;;;;;;;;6118717;23;20018;-53
2022/07/10 04:39:27;;;;;;;2.08;1.33;;;;;;;;;;6109106;23;20022;-57
2022/07/10 04:41:54;;;;;;;2.95;1.30;;;;;;;;;;6116809;23;20018;-57
2022/07/10 04:44:20;;;;;;;2.30;1.60;;;;;;;;;;6106203;23;20041;-55
2022/07/10 04:46:47;;;;;;;1.35;1.20;;;;;;;;;;6114050;23;20018;-57
2022/07/10 04:49:14;;;;;;;1.80;1.25;;;;;;;;;;6112533;23;20041;-56
2022/07/10 04:51:42;;;;;;;1.52;1.30;;;;;;;;;;6112368;23;20014;-57
2022/07/10 04:54:08;;;;;;;4.28;1.27;;;;;;;;;;6114947;23;20163;-56
2022/07/10 04:56:35;;;;;;;3.70;1.23;;;;;;;;;;6104984;23;20022;-58
2022/07/10 04:59:02;;;;;;;1.85;1.70;;;;;;;;;;6110847;23;20029;-55
2022/07/10 05:01:28;;;;;;;2.70;1.80;;;;;;;;;;6090435;23;20045;-56
2022/07/10 05:03:55;;;;;;;3.60;1.80;;;;;;;;;;6091384;23;20489;-56
2022/07/10 05:06:21;;;;;;;3.08;1.50;;;;;;;;;;6113291;23;20014;-57
2022/07/10 05:08:49;;;;;;;5.32;1.95;;;;;;;;;;6104220;23;20175;-54
2022/07/10 05:11:16;;;;;;;4.43;1.73;;;;;;;;;;6119560;23;20025;-57
2022/07/10 05:13:45;;;;;;;4.07;2.45;;;;;;;;;;6102562;23;20014;-54
2022/07/10 05:16:12;;;;;;;1.90;1.55;;;;;;;;;;6117449;23;20017;-57
2022/07/10 05:18:39;;;;;;;2.15;1.70;;;;;;;;;;6110610;23;20086;-57
2022/07/10 05:21:05;;;;;;;1.85;1.75;;;;;;;;;;6107526;23;20017;-52
2022/07/10 05:23:32;;;;;;;2.55;1.70;;;;;;;;;;6113825;23;20032;-56
2022/07/10 05:26:00;;;;;;;3.92;1.88;;;;;;;;;;6112430;23;20429;-57
2022/07/10 05:28:27;;;;;;;3.28;2.17;;;;;;;;;;6115014;23;20014;-56
2022/07/10 05:30:53;;;;;;;3.38;1.83;;;;;;;;;;6086647;23;20433;-57
2022/07/10 05:33:20;;;;;;;4.95;1.77;;;;;;;;;;6113351;23;20477;-56
2022/07/10 05:35:46;;;;;;;1.60;1.50;;;;;;;;;;6109682;23;20637;-54
2022/07/10 05:38:13;;;;;;;3.63;2.40;;;;;;;;;;6108437;23;20069;-57
2022/07/10 05:40:39;;;;;;;2.38;2.17;;;;;;;;;;6114599;23;20032;-56
2022/07/10 05:43:07;;;;;;;4.18;2.65;;;;;;;;;;6106333;23;20018;-55
2022/07/10 05:45:34;;;;;;;5.18;3.25;;;;;;;;;;6113448;23;20065;-57
2022/07/10 05:48:00;;;;;;;5.15;2.95;;;;;;;;;;6113896;23;20022;-58
2022/07/10 05:50:26;;;;;;;4.18;3.35;;;;;;;;;;6113097;23;20014;-54
2022/07/10 05:52:53;;;;;;;4.38;3.47;;;;;;;;;;6106936;23;20325;-56
2022/07/10 05:55:19;;;;;;;3.78;3.42;;;;;;;;;;6114202;23;20359;-57
2022/07/10 05:57:46;;;;;;;5.35;3.33;;;;;;;;;;6114471;23;20018;-56
2022/07/10 06:00:17;;;;;;;3.90;3.33;;;;;;;;;;6116062;23;20014;-58
2022/07/10 06:02:44;;;;;;;5.22;4.28;;;;;;;;;;6120792;23;20077;-57
2022/07/10 06:05:13;;;;;;;9.40;4.32;;;;;;;;;;6110377;23;20056;-57
2022/07/10 06:07:39;;;;;;;5.30;4.40;;;;;;;;;;6116049;23;20014;-55
2022/07/10 06:10:07;;;;;;;6.85;4.72;;;;;;;;;;6101860;23;20014;-53
2022/07/10 06:12:33;;;;;;;4.20;3.80;;;;;;;;;;6117598;23;20025;-55
2022/07/10 06:15:00;;;;;;;5.60;4.80;;;;;;;;;;6105667;23;20041;-54
2022/07/10 06:17:28;;;;;;;5.97;4.35;;;;;;;;;;6118114;23;20448;-55
2022/07/10 06:19:54;;;;;;;5.93;4.63;;;;;;;;;;6103319;23;20041;-56
2022/07/10 06:22:33;;;;;;;7.55;4.75;;;;;;;;;;6118389;23;20040;-57
2022/07/10 06:25:00;;;;;;;6.15;5.40;;;;;;;;;;6108176;23;20014;-54
2022/07/10 06:27:27;;;;;;;5.82;5.00;;;;;;;;;;6118071;23;20444;-54
2022/07/10 06:29:54;;;;;;;5.65;5.00;;;;;;;;;;6109025;23;20504;-57
2022/07/10 06:32:20;;;;;;;6.20;5.28;;;;;;;;;;6119357;23;20302;-58
2022/07/10 06:34:48;;;;;;;6.63;4.82;;;;;;;;;;6102437;23;20014;-57
2022/07/10 06:37:14;;;;;;;8.30;5.85;;;;;;;;;;6119618;23;20013;-58
2022/07/10 06:39:41;;;;;;;5.45;4.85;;;;;;;;;;6110269;23;20017;-58
2022/07/10 06:42:08;;;;;;;6.13;5.20;;;;;;;;;;6115054;23;20046;-57
2022/07/10 06:44:34;;;;;;;9.40;6.60;;;;;;;;;;6110543;23;20014;-58
2022/07/10 06:49:46;;;;;;;7.18;5.63;;;;;;;;;;6121642;23;20021;-56
2022/07/10 06:52:14;;;;;;;8.05;5.63;;;;;;;;;;6109340;23;20026;-59
2022/07/10 06:54:40;;;;;;;5.68;5.15;;;;;;;;;;6118438;23;20155;-58
2022/07/10 06:57:07;;;;;;;6.85;4.68;;;;;;;;;;6108842;23;20026;-58
2022/07/10 06:59:33;;;;;;;5.72;5.15;;;;;;;;;;6090624;23;20024;-58
2022/07/10 07:02:00;;;;;;;7.40;5.28;;;;;;;;;;6110955;23;20017;-57
2022/07/10 07:04:26;;;;;;;6.55;5.85;;;;;;;;;;6116077;23;20014;-57
2022/07/10 07:06:53;;;;;;;7.78;5.65;;;;;;;;;;6097925;23;20522;-58
2022/07/10 07:09:21;;;;;;;8.05;5.53;;;;;;;;;;6114548;23;20017;-58
2022/07/10 07:11:47;;;;;;;6.20;5.00;;;;;;;;;;6112928;23;20606;-58
2022/07/10 07:14:14;;;;;;;7.00;5.50;;;;;;;;;;6113086;23;20042;-58
2022/07/10 07:16:42;;;;;;;5.75;5.10;;;;;;;;;;6106402;23;20013;-58
2022/07/10 07:19:11;;;;;;;5.82;4.95;;;;;;;;;;6118139;23;20045;-58
2022/07/10 07:24:23;;;;;;;6.15;5.35;;;;;;;;;;6107153;23;20504;-59
2022/07/10 07:26:50;;;;;;;7.15;5.93;;;;;;;;;;6115689;23;20025;-57
2022/07/10 07:29:16;;;;;;;6.55;5.57;;;;;;;;;;6108478;23;20397;-58
2022/07/10 07:31:44;;;;;;;6.03;5.38;;;;;;;;;;6116674;23;20024;-58
2022/07/10 07:34:10;;;;;;;6.25;4.50;;;;;;;;;;6108778;23;20022;-58
2022/07/10 07:36:37;;;;;;;6.90;5.20;;;;;;;;;;6115530;23;20018;-58
2022/07/10 07:39:04;;;;;;;5.95;4.78;;;;;;;;;;6098677;23;20032;-58
2022/07/10 07:41:32;;;;;;;6.22;4.38;;;;;;;;;;6117546;23;20018;-58
2022/07/10 07:43:58;;;;;;;5.53;4.68;;;;;;;;;;6108840;23;20017;-57
2022/07/10 07:46:25;;;;;;;7.10;4.57;;;;;;;;;;6122749;23;20014;-58
2022/07/10 07:48:51;;;;;;;4.82;4.32;;;;;;;;;;6073950;23;20022;-57
2022/07/10 07:51:18;;;;;;;5.45;4.32;;;;;;;;;;6117095;23;20021;-57
2022/07/10 07:53:44;;;;;;;7.40;4.30;;;;;;;;;;6100177;23;20022;-58
2022/07/10 07:56:11;;;;;;;8.60;4.45;;;;;;;;;;6113842;23;20014;-58
2022/07/10 07:58:39;;;;;;;7.85;4.07;;;;;;;;;;6101139;23;20050;-58
2022/07/10 08:01:05;;;;;;;4.53;4.10;;;;;;;;;;6122941;23;20515;-58
2022/07/10 08:03:32;;;;;;;4.53;4.13;;;;;;;;;;6111893;23;20014;-57
2022/07/10 08:05:58;;;;;;;4.30;3.65;;;;;;;;;;6109928;23;20041;-57
2022/07/10 08:08:27;;;;;;;4.35;3.30;;;;;;;;;;6115833;23;20041;-58
2022/07/10 08:10:53;;;;;;;4.43;4.00;;;;;;;;;;6121112;23;20073;-58
2022/07/10 08:13:20;;;;;;;3.90;3.50;;;;;;;;;;6101618;23;20050;-58
2022/07/10 08:15:48;;;;;;;5.82;3.38;;;;;;;;;;6117190;23;20042;-57
2022/07/10 08:18:15;;;;;;;4.43;3.75;;;;;;;;;;6108962;23;20014;-59
2022/07/10 08:20:43;;;;;;;3.83;3.33;;;;;;;;;;6076193;23;20028;-58
2022/07/10 08:23:12;;;;;;;4.32;3.55;;;;;;;;;;6052686;23;20014;-58
2022/07/10 08:25:39;;;;;;;3.72;3.08;;;;;;;;;;6102604;23;20014;-58
2022/07/10 08:28:06;;;;;;;5.30;3.22;;;;;;;;;;6118612;23;20053;-58
2022/07/10 08:30:33;;;;;;;4.07;3.33;;;;;;;;;;6106642;23;20390;-58
2022/07/10 08:33:01;;;;;;;3.58;3.20;;;;;;;;;;6075436;23;20431;-58
2022/07/10 08:35:28;;;;;;;3.28;2.80;;;;;;;;;;6109744;23;20427;-58
2022/07/10 08:37:54;;;;;;;3.85;3.28;;;;;;;;;;6103595;23;20418;-59
2022/07/10 08:40:22;;;;;;;4.53;3.35;;;;;;;;;;6107949;23;20038;-58
2022/07/10 08:42:51;;;;;;;4.03;3.33;;;;;;;;;;6113410;23;20018;-59
2022/07/10 08:45:17;;;;;;;6.30;3.60;;;;;;;;;;6116651;23;20022;-58
2022/07/10 08:47:44;;;;;;;4.50;3.60;;;;;;;;;;6079120;23;20018;-59
2022/07/10 08:50:16;;;;;;;6.55;4.75;;;;;;;;;;6115928;23;20037;-58
2022/07/10 08:52:43;;;;;;;5.80;4.28;;;;;;;;;;6073274;23;20480;-59
2022/07/10 08:55:12;;;;;;;5.97;4.57;;;;;;;;;;6107851;23;20014;-59
2022/07/10 08:57:40;;;;;;;6.43;4.65;;;;;;;;;;6113995;23;20050;-59
2022/07/10 09:00:07;;;;;;;6.88;4.30;;;;;;;;;;6108704;23;20018;-59
2022/07/10 09:02:34;;;;;;;4.40;3.63;;;;;;;;;;6110103;23;20088;-58
2022/07/10 09:05:01;;;;;;;4.85;4.18;;;;;;;;;;6080562;23;20014;-59
2022/07/10 09:07:35;;;;;;;4.50;3.80;;;;;;;;;;6051788;23;20014;-59
2022/07/10 09:10:06;;;;;;;5.68;3.33;;;;;;;;;;6077626;23;20468;-59
2022/07/10 09:12:49;;;;;;;6.20;2.50;;;;;;;;;;6084028;23;20014;-59
2022/07/10 09:15:16;;;;;;;3.90;2.95;;;;;;;;;;6088919;23;20013;-59
2022/07/10 09:17:49;;;;;;;3.25;2.95;;;;;;;;;;6106744;23;20037;-59
2022/07/10 09:20:24;;;;;;;4.43;2.40;;;;;;;;;;6122196;23;20021;-59
2022/07/10 09:22:52;;;;;;;4.95;2.08;;;;;;;;;;6134156;23;20052;-59
2022/07/10 09:25:19;;;;;;;5.70;3.35;;;;;;;;;;6140457;23;20040;-59
2022/07/10 09:27:53;;;;;;;5.38;2.72;;;;;;;;;;6144048;23;20018;-58
2022/07/10 09:30:31;;;;;;;6.07;2.63;;;;;;;;;;6136722;23;20021;-59
2022/07/10 09:33:15;;;;;;;4.20;2.85;;;;;;;;;;6105234;23;20017;-59
2022/07/10 09:36:06;;;;;;;4.63;3.42;;;;;;;;;;6130792;23;20017;-59
2022/07/10 09:38:51;;;;;;;3.10;2.80;;;;;;;;;;6143786;23;20029;-59
2022/07/10 09:41:19;;;;;;;4.55;2.78;;;;;;;;;;6145547;23;20022;-59
2022/07/10 09:43:46;;;;;;;6.00;2.67;;;;;;;;;;6134453;23;20101;-59
2022/07/10 09:46:13;;;;;;;4.97;2.35;;;;;;;;;;6146675;23;20018;-59
2022/07/10 09:48:39;;;;;;;7.10;2.83;;;;;;;;;;6135714;23;20018;-59
2022/07/10 09:51:08;;;;;;;3.38;2.70;;;;;;;;;;6125912;23;20113;-59
2022/07/10 09:53:37;;;;;;;6.50;2.90;;;;;;;;;;6137389;23;20041;-58
2022/07/10 09:56:06;;;;;;;1.75;1.63;;;;;;;;;;6147551;23;20557;-59
2022/07/10 09:58:34;;;;;;;6.68;2.20;;;;;;;;;;6132487;23;20029;-58
2022/07/10 10:01:02;;;;;;;4.88;1.85;;;;;;;;;;6142782;23;20024;-58
2022/07/10 10:03:32;;;;;;;3.30;1.83;;;;;;;;;;6138326;23;20459;-58
2022/07/10 10:06:02;;;;;;;1.70;1.60;;;;;;;;;;6143855;23;20018;-59
2022/07/10 10:08:28;;;;;;;;;;;;;;;;;;6135238;23;20566;-59
2022/07/10 10:10:57;;;;;;;2.58;1.80;;;;;;;;;;6141437;23;20552;-58
2022/07/10 10:13:27;;;;;;;4.63;2.15;;;;;;;;;;6129180;23;20022;-58
2022/07/10 10:15:53;;;;;;;2.95;2.20;;;;;;;;;;6139675;23;20394;-58
2022/07/10 10:18:20;;;;;;;2.65;1.55;;;;;;;;;;6134947;23;20017;-59
2022/07/10 10:20:47;;;;;;;2.28;2.08;;;;;;;;;;6127242;23;20032;-59
2022/07/10 10:23:15;;;;;;;2.83;2.03;;;;;;;;;;6128435;23;20053;-57
2022/07/10 10:25:41;;;;;;;6.68;1.73;;;;;;;;;;6141461;23;20014;-58
2022/07/10 10:28:09;;;;;;;2.30;1.90;;;;;;;;;;6126464;23;20025;-59
2022/07/10 10:30:39;;;;;;;3.97;1.58;;;;;;;;;;6138590;23;20022;-59
2022/07/10 10:33:21;;;;;;;3.47;1.80;;;;;;;;;;6131611;23;20028;-59
2022/07/10 10:35:48;;;;;;;1.88;1.67;;;;;;;;;;6127248;23;20022;-59
2022/07/10 10:38:15;;;;;;;2.33;1.38;;;;;;;;;;6132932;23;20109;-59
2022/07/10 10:40:41;;;;;;;3.40;1.70;;;;;;;;;;6133130;23;20017;-59
2022/07/10 10:43:18;;;;;;;1.77;1.27;;;;;;;;;;6140304;23;20057;-59
2022/07/10 10:45:46;;;;;;;1.75;1.58;;;;;;;;;;6137549;23;20018;-59
2022/07/10 10:48:14;;;;;;;1.30;1.20;;;;;;;;;;6137690;23;20085;-60
2022/07/10 10:50:42;;;;;;;1.88;1.45;;;;;;;;;;6135213;23;20017;-59
2022/07/10 10:53:16;;;;;;;3.25;1.48;;;;;;;;;;6133979;23;20021;-59
2022/07/10 10:56:03;;;;;;;2.13;1.35;;;;;;;;;;6139947;23;20017;-60
2022/07/10 10:58:36;;;;;;;3.33;1.52;;;;;;;;;;6126465;23;20640;-59
2022/07/10 11:01:05;;;;;;;1.92;1.58;;;;;;;;;;6132627;23;20014;-59
2022/07/10 11:03:31;;;;;;;2.07;1.43;;;;;;;;;;6135676;23;20069;-59
2022/07/10 11:05:58;;;;;;;3.42;1.48;;;;;;;;;;6140928;23;20306;-59
2022/07/10 11:08:37;;;;;;;2.22;1.27;;;;;;;;;;6137175;23;20013;-59
2022/07/10 11:11:19;;;;;;;2.33;1.35;;;;;;;;;;6115351;23;20017;-59
2022/07/10 11:13:46;;;;;;;2.08;1.48;;;;;;;;;;6112911;23;20467;-59
2022/07/10 11:16:15;;;;;;;2.95;1.40;;;;;;;;;;6091665;23;20311;-58
2022/07/10 11:18:43;;;;;;;1.88;1.13;;;;;;;;;;6125895;23;20037;-58
2022/07/10 11:21:21;;;;;;;4.32;1.38;;;;;;;;;;6116669;23;20020;-58
2022/07/10 11:23:56;;;;;;;1.60;1.42;;;;;;;;;;6117592;23;20080;-58
2022/07/10 11:26:25;;;;;;;3.10;1.23;;;;;;;;;;6115685;23;20025;-57
2022/07/10 11:28:53;;;;;;;2.05;1.50;;;;;;;;;;6113186;23;20200;-57
2022/07/10 11:31:22;;;;;;;3.35;1.67;;;;;;;;;;6118593;23;20360;-56
2022/07/10 11:33:58;;;;;;;1.35;1.00;;;;;;;;;;6092829;23;20025;-57
2022/07/10 11:36:28;;;;;;;1.85;0.70;;;;;;;;;;6110414;23;20013;-58
2022/07/10 11:38:57;;;;;;;1.42;0.70;;;;;;;;;;6110041;23;20014;-56
2022/07/10 11:41:24;;;;;;;1.42;0.85;;;;;;;;;;6122590;23;20072;-56
2022/07/10 11:43:51;;;;;;;1.33;1.10;;;;;;;;;;6122176;23;20064;-57
2022/07/10 11:46:18;;;;;;;1.27;1.17;;;;;;;;;;6104111;23;20555;-58
2022/07/10 11:48:46;;;;;;;2.42;0.93;;;;;;;;;;6126135;23;20014;-58
2022/07/10 11:51:19;;;;;;;0.95;0.88;;;;;;;;;;6137528;23;20021;-57
2022/07/10 11:53:56;;;;;;;1.75;1.00;;;;;;;;;;6137431;23;20048;-56
2022/07/10 11:56:23;;;;;;;1.20;1.00;;;;;;;;;;6131962;23;20028;-57
2022/07/10 11:58:56;;;;;;;2.63;1.13;;;;;;;;;;6136300;23;20028;-56
2022/07/10 12:01:23;;;;;;;1.40;1.30;;;;;;;;;;6136988;23;20022;-55
2022/07/10 12:04:00;;;;;;;1.33;1.25;;;;;;;;;;6134399;23;20014;-57
2022/07/10 12:06:27;;;;;;;4.25;2.42;;;;;;;;;;6135222;23;20575;-57
2022/07/10 12:08:54;;;;;;;1.55;0.98;;;;;;;;;;6135230;23;20017;-57
2022/07/10 12:11:21;;;;;;;1.40;1.13;;;;;;;;;;6136118;23;20250;-57
2022/07/10 12:13:48;;;;;;;2.08;1.45;;;;;;;;;;6140095;23;20503;-57
2022/07/10 12:16:15;;;;;;;2.15;1.20;;;;;;;;;;6132925;23;20459;-56
2022/07/10 12:18:42;;;;;;;1.95;1.27;;;;;;;;;;6124807;23;20539;-57
2022/07/10 12:21:10;;;;;;;0.82;0.77;;;;;;;;;;6139732;23;20049;-56
2022/07/10 12:23:39;;;;;;;1.20;0.85;;;;;;;;;;6132013;23;20447;-55
2022/07/10 12:26:06;;;;;;;1.05;0.90;;;;;;;;;;6116580;23;20045;-57
2022/07/10 12:28:48;;;;;;;2.33;1.00;;;;;;;;;;6119961;23;20017;-56
2022/07/10 12:31:20;;;;;;;2.20;1.30;;;;;;;;;;6092698;23;20048;-57
2022/07/10 12:33:50;;;;;;;0.60;0.60;;;;;;;;;;6103080;23;20025;-57
2022/07/10 12:36:18;;;;;;;0.88;0.80;;;;;;;;;;6111752;23;20018;-57
2022/07/10 12:38:54;;;;;;;0.95;0.88;;;;;;;;;;6139673;23;20639;-57
2022/07/10 12:41:24;;;;;;;0.90;0.80;;;;;;;;;;6130525;23;20018;-57
2022/07/10 12:43:51;;;;;;;1.95;1.20;;;;;;;;;;6133363;23;20096;-57
2022/07/10 12:46:19;;;;;;;3.40;1.95;;;;;;;;;;6135113;23;20444;-57
2022/07/10 12:49:01;;;;;;;10.25;7.63;;;;;;;;;;6135156;23;20024;-57
2022/07/10 12:51:30;;;;;;;1.17;1.00;;;;;;;;;;6126879;23;20017;-57
2022/07/10 12:53:56;;;;;;;1.77;0.95;;;;;;;;;;6111340;23;20025;-58
2022/07/10 12:56:33;;;;;;;3.05;1.55;;;;;;;;;;6134392;23;20503;-57
2022/07/10 12:59:00;;;;;;;1.10;1.00;;;;;;;;;;6128135;23;20044;-58
2022/07/10 13:01:27;;;;;;;1.65;1.02;;;;;;;;;;6116657;23;20017;-58
2022/07/10 13:04:01;;;;;;;0.98;0.93;;;;;;;;;;6130699;23;20092;-58
2022/07/10 13:06:30;;;;;;;4.07;2.00;;;;;;;;;;6138375;23;20014;-59
2022/07/10 13:08:56;;;;;;;0.77;0.77;;;;;;;;;;6130294;23;20025;-59
2022/07/10 13:11:23;;;;;;;7.07;5.93;;;;;;;;;;6135983;23;20248;-58
2022/07/10 13:13:49;;;;;;;2.33;0.93;;;;;;;;;;6134555;23;20029;-58
2022/07/10 13:16:22;;;;;;;0.93;0.90;;;;;;;;;;6140537;23;20013;-56
2022/07/10 13:18:49;;;;;;;1.30;1.20;;;;;;;;;;6114707;23;20559;-57
2022/07/10 13:21:15;;;;;;;0.90;0.80;;;;;;;;;;6120662;23;20474;-57
2022/07/10 13:23:43;;;;;;;1.10;1.00;;;;;;;;;;6137770;23;20495;-57
2022/07/10 13:26:10;;;;;;;2.83;0.60;;;;;;;;;;6127705;23;20036;-57
2022/07/10 13:28:37;;;;;;;1.70;1.33;;;;;;;;;;6135767;23;20447;-56
2022/07/10 13:31:03;;;;;;;1.23;1.13;;;;;;;;;;6134802;23;20576;-57
2022/07/10 13:33:30;;;;;;;2.10;0.90;;;;;;;;;;6140084;23;20017;-57
2022/07/10 13:35:56;;;;;;;2.30;0.80;;;;;;;;;;6134983;23;20021;-56
2022/07/10 13:38:25;;;;;;;2.03;1.05;;;;;;;;;;6133431;23;20026;-57
2022/07/10 13:40:55;;;;;;;0.70;0.70;;;;;;;;;;6133127;23;20378;-57
2022/07/10 13:43:26;;;;;;;0.80;0.80;;;;;;;;;;6143456;23;20022;-57
2022/07/10 13:45:53;;;;;;;0.60;0.60;;;;;;;;;;6129420;23;20018;-57
2022/07/10 13:48:20;;;;;;;0.50;0.50;;;;;;;;;;6141903;23;20014;-57
2022/07/10 13:50:47;;;;;;;1.38;0.95;;;;;;;;;;6123971;23;20018;-57
2022/07/10 13:53:13;;;;;;;1.25;1.15;;;;;;;;;;6138008;23;20023;-56
2022/07/10 13:55:40;;;;;;;1.52;0.80;;;;;;;;;;6130129;23;20025;-57
2022/07/10 13:58:08;;;;;;;4.50;1.00;;;;;;;;;;6138065;23;20076;-57
2022/07/10 14:00:36;;;;;;;1.45;1.10;;;;;;;;;;6131427;23;20494;-57
2022/07/10 14:03:03;;;;;;;5.40;1.08;;;;;;;;;;6134641;23;20017;-56
2022/07/10 14:05:30;;;;;;;1.83;1.23;;;;;;;;;;6132362;23;20022;-57
2022/07/10 14:07:57;;;;;;;0.80;0.80;;;;;;;;;;6140606;23;20447;-57
2022/07/10 14:10:23;;;;;;;3.17;1.10;;;;;;;;;;6128235;23;20017;-57
2022/07/10 14:12:50;;;;;;;1.10;1.00;;;;;;;;;;6140900;23;20026;-57
2022/07/10 14:15:18;;;;;;;0.95;0.90;;;;;;;;;;6122604;23;20096;-57
2022/07/10 14:17:44;;;;;;;1.05;0.80;;;;;;;;;;6139686;23;20045;-58
2022/07/10 14:20:11;;;;;;;1.60;0.88;;;;;;;;;;6129516;23;20013;-57
2022/07/10 14:22:38;;;;;;;1.85;1.50;;;;;;;;;;6117083;23;20337;-57
2022/07/10 14:25:05;;;;;;;2.13;0.80;;;;;;;;;;6131311;23;20017;-57
2022/07/10 14:27:32;;;;;;;1.58;0.80;;;;;;;;;;6144681;23;20021;-57
2022/07/10 14:29:59;;;;;;;3.08;0.90;;;;;;;;;;6132251;23;20092;-57
2022/07/10 14:32:27;;;;;;;1.05;1.00;;;;;;;;;;6139262;23;20018;-57
2022/07/10 14:34:53;;;;;;;1.42;1.33;;;;;;;;;;6142591;23;20482;-53
2022/07/10 14:37:22;;;;;;;2.15;0.95;;;;;;;;;;6133604;23;20017;-57
2022/07/10 14:39:49;;;;;;;1.07;0.93;;;;;;;;;;6141184;23;20013;-56
2022/07/10 14:42:15;;;;;;;1.05;0.80;;;;;;;;;;6137141;23;20013;-56
2022/07/10 14:44:43;;;;;;;0.82;0.82;;;;;;;;;;6113737;23;20021;-58
2022/07/10 14:47:10;;;;;;;1.13;1.00;;;;;;;;;;6124072;23;20022;-56
2022/07/10 14:49:38;;;;;;;1.92;0.63;;;;;;;;;;6140216;23;20077;-56
2022/07/10 14:52:05;;;;;;;1.25;1.05;;;;;;;;;;6143065;23;20028;-57
2022/07/10 14:54:31;;;;;;;1.27;0.73;;;;;;;;;;6144586;23;20032;-57
2022/07/10 14:56:59;;;;;;;1.25;1.08;;;;;;;;;;6114181;23;20502;-58
2022/07/10 14:59:25;;;;;;;1.92;0.82;;;;;;;;;;6145174;23;20081;-57